Time;durP1;ratioP1;P1;durP2;ratioP2;P2;SDS_P1;SDS_P2;PMS_P1;PMS_P2;Temp;Humidity;BMP_temperature;BMP_pressure;BME280_temperature;BME280_humidity;BME280_pressure;Samples;Min_cycle;Max_cycle;Signal;HPM_P1;HPM_P2
2023/05/03 11:48:15;;;;;;;17.13;11.45;;;;;;;14.99;70.89;99935.63;5060422;28;20607;-76
2023/05/03 11:50:45;;;;;;;14.80;10.77;;;;;;;15.21;69.93;99928.69;5038513;28;20219;-73
2023/05/03 11:53:14;;;;;;;17.38;10.45;;;;;;;15.26;69.69;99919.97;5043582;28;20017;-74
2023/05/03 11:55:47;;;;;;;25.55;10.93;;;;;;;15.41;71.83;99926.03;5039479;28;20030;-74
2023/05/03 11:58:21;;;;;;;13.43;10.00;;;;;;;15.47;69.60;99916.16;5042037;28;20051;-72
2023/05/03 12:00:49;;;;;;;14.20;9.65;;;;;;;15.05;72.43;99910.88;5048360;28;20567;-70
2023/05/03 12:03:29;;;;;;;13.15;10.05;;;;;;;15.19;72.73;99914.13;5046205;28;20025;-75
2023/05/03 12:05:55;;;;;;;17.50;11.13;;;;;;;15.37;72.95;99911.03;5046833;28;20140;-74
2023/05/03 12:08:26;;;;;;;15.77;11.80;;;;;;;15.26;73.81;99911.53;5047975;28;20411;-76
2023/05/03 12:10:53;;;;;;;16.27;10.82;;;;;;;15.38;73.75;99912.66;5046774;28;20497;-73
2023/05/03 12:13:32;;;;;;;13.63;9.85;;;;;;;15.49;72.25;99905.34;5037126;28;20026;-72
2023/05/03 12:16:01;;;;;;;14.15;10.25;;;;;;;15.64;71.17;99892.50;5040573;28;20025;-74
2023/05/03 12:18:27;;;;;;;17.98;10.32;;;;;;;15.84;71.20;99884.16;5043511;28;20029;-74
2023/05/03 12:20:57;;;;;;;19.33;10.00;;;;;;;16.06;71.04;99885.59;5047767;28;21084;-74
2023/05/03 12:23:25;;;;;;;12.68;9.55;;;;;;;16.24;71.57;99885.25;5065566;28;20112;-74
2023/05/03 12:25:51;;;;;;;9.95;8.93;;;;;;;16.32;69.35;99852.38;5043648;28;20489;-72
2023/05/03 12:28:17;;;;;;;12.90;10.10;;;;;;;16.38;71.39;99840.44;5044207;28;20040;-73
2023/05/03 12:30:43;;;;;;;11.65;10.32;;;;;;;16.56;72.59;99851.34;5041892;28;20029;-70
2023/05/03 12:33:09;;;;;;;11.75;9.93;;;;;;;16.54;70.82;99859.38;5045911;28;20032;-70
2023/05/03 12:35:35;;;;;;;14.82;8.93;;;;;;;16.68;69.00;99861.72;5030473;28;20021;-70
2023/05/03 12:38:05;;;;;;;16.00;8.90;;;;;;;16.54;69.06;99860.19;5028916;28;20503;-71
2023/05/03 12:40:31;;;;;;;11.13;9.68;;;;;;;16.57;70.11;99853.00;5043300;28;20032;-74
2023/05/03 12:42:56;;;;;;;11.45;8.98;;;;;;;16.37;69.15;99833.16;5037568;28;20034;-71
2023/05/03 12:45:22;;;;;;;10.57;9.48;;;;;;;16.64;69.54;99833.38;5036577;28;20032;-71
2023/05/03 12:47:47;;;;;;;11.90;8.75;;;;;;;16.46;70.29;99834.97;5034127;28;20397;-75
2023/05/03 12:50:13;;;;;;;12.73;8.18;;;;;;;16.29;69.38;99837.00;5038362;28;20482;-74
2023/05/03 12:52:39;;;;;;;12.32;9.07;;;;;;;16.32;70.69;99853.19;5045128;28;20029;-77
2023/05/03 12:55:05;;;;;;;12.20;9.98;;;;;;;16.34;69.10;99856.47;5047117;28;20029;-75
2023/05/03 12:57:32;;;;;;;13.25;9.88;;;;;;;16.61;68.10;99847.44;5047204;28;20013;-75
2023/05/03 12:59:58;;;;;;;10.15;9.10;;;;;;;16.51;69.34;99838.34;5034623;28;20021;-75
2023/05/03 13:02:23;;;;;;;15.15;9.98;;;;;;;16.34;70.81;99835.88;5026270;28;20092;-75
2023/05/03 13:04:53;;;;;;;10.90;9.00;;;;;;;16.21;71.43;99826.72;5025029;28;20021;-76
2023/05/03 13:07:20;;;;;;;13.93;9.25;;;;;;;16.42;70.07;99823.59;5027387;28;20051;-75
2023/05/03 13:09:46;;;;;;;16.23;9.88;;;;;;;16.03;70.68;99814.97;5033670;28;20029;-75
2023/05/03 13:12:11;;;;;;;12.02;8.82;;;;;;;15.94;70.27;99818.78;5032446;28;20041;-75
2023/05/03 13:14:37;;;;;;;14.07;8.68;;;;;;;16.12;69.83;99833.34;5030772;28;20025;-75
2023/05/03 13:17:03;;;;;;;17.67;9.85;;;;;;;16.28;70.34;99821.22;5022141;28;20014;-76
2023/05/03 13:19:29;;;;;;;15.27;8.60;;;;;;;16.37;69.88;99827.50;5022169;28;20116;-76
2023/05/03 13:21:54;;;;;;;13.75;9.25;;;;;;;16.37;71.02;99821.88;5023261;28;20488;-75
2023/05/03 13:24:20;;;;;;;19.67;10.55;;;;;;;16.13;72.44;99818.06;5024421;28;20072;-76
2023/05/03 13:26:45;;;;;;;12.00;9.00;;;;;;;15.85;75.11;99813.28;5024559;28;20444;-75
2023/05/03 13:29:11;;;;;;;12.80;9.20;;;;;;;15.80;74.99;99824.81;5023754;28;20021;-75
2023/05/03 13:31:37;;;;;;;15.52;9.73;;;;;;;15.83;74.61;99818.50;5021623;28;20037;-75
2023/05/03 13:34:02;;;;;;;11.82;9.82;;;;;;;15.78;75.33;99815.13;5019468;28;20044;-75
2023/05/03 13:36:28;;;;;;;13.93;9.57;;;;;;;15.63;75.13;99808.25;5020142;28;20040;-75
2023/05/03 13:38:54;;;;;;;13.50;9.35;;;;;;;15.88;73.20;99799.66;5026307;28;20408;-75
2023/05/03 13:41:20;;;;;;;16.70;9.52;;;;;;;15.87;71.60;99790.38;5017795;28;20026;-75
2023/05/03 13:43:46;;;;;;;15.63;10.07;;;;;;;16.07;70.73;99794.13;5027759;28;20071;-75
2023/05/03 13:46:12;;;;;;;15.25;8.65;;;;;;;16.20;71.37;99780.72;5024753;28;20046;-75
2023/05/03 13:48:38;;;;;;;15.07;8.68;;;;;;;16.00;71.11;99780.69;5022372;28;20033;-75
2023/05/03 13:51:11;;;;;;;13.85;9.02;;;;;;;15.97;71.02;99783.41;5026567;28;20393;-75
2023/05/03 13:53:38;;;;;;;15.77;8.02;;;;;;;15.89;69.18;99785.19;5018274;28;20033;-75
2023/05/03 13:56:05;;;;;;;12.77;8.70;;;;;;;15.96;69.71;99781.75;5028558;28;20468;-75
2023/05/03 13:58:30;;;;;;;14.38;9.07;;;;;;;16.20;67.59;99777.91;5028276;28;20033;-75
2023/05/03 14:00:56;;;;;;;16.30;9.57;;;;;;;16.25;65.24;99777.66;5027401;28;20060;-75
2023/05/03 14:03:21;;;;;;;18.52;10.18;;;;;;;16.27;65.84;99782.91;5028472;28;20096;-76
2023/05/03 14:05:47;;;;;;;22.10;10.95;;;;;;;16.23;68.21;99784.84;5030133;28;20084;-76
2023/05/03 14:08:12;;;;;;;23.70;11.68;;;;;;;16.22;67.54;99777.56;5018241;28;20033;-75
2023/05/03 14:10:39;;;;;;;19.23;10.63;;;;;;;16.24;68.29;99766.72;5028069;28;20033;-76
2023/05/03 14:13:04;;;;;;;14.43;9.30;;;;;;;16.31;68.35;99760.41;5023303;28;20428;-75
2023/05/03 14:15:30;;;;;;;18.48;9.48;;;;;;;16.46;68.06;99767.22;5025100;28;20056;-69
2023/05/03 14:17:55;;;;;;;15.93;11.00;;;;;;;16.44;66.95;99766.78;5025573;28;20080;-71
2023/05/03 14:20:21;;;;;;;11.48;9.18;;;;;;;16.66;65.69;99765.25;5021615;28;20029;-70
2023/05/03 14:22:46;;;;;;;14.57;9.13;;;;;;;16.66;64.15;99760.44;5028038;28;20113;-72
2023/05/03 14:25:12;;;;;;;11.55;8.63;;;;;;;16.70;65.59;99754.84;5022095;28;20025;-73
2023/05/03 14:27:37;;;;;;;11.40;9.07;;;;;;;16.81;66.35;99758.72;5022158;28;20488;-72
2023/05/03 14:30:04;;;;;;;24.35;11.73;;;;;;;16.91;65.27;99770.63;5023494;28;20184;-71
2023/05/03 14:32:29;;;;;;;37.83;24.20;;;;;;;16.58;65.62;99772.75;5025587;28;20029;-70
2023/05/03 14:34:55;;;;;;;38.13;21.67;;;;;;;16.67;64.25;99769.72;5023445;28;20033;-72
2023/05/03 14:37:21;;;;;;;13.90;10.18;;;;;;;16.44;66.25;99775.25;5038622;28;20029;-71
2023/05/03 14:39:47;;;;;;;14.43;9.00;;;;;;;16.53;65.96;99762.56;5012620;28;21585;-70
2023/05/03 14:42:12;;;;;;;12.02;10.18;;;;;;;16.63;67.12;99760.34;5014442;28;20077;-70
2023/05/03 14:44:38;;;;;;;12.93;9.25;;;;;;;16.63;66.81;99763.16;5026415;28;20036;-69
2023/05/03 14:47:04;;;;;;;14.07;10.75;;;;;;;15.93;72.17;99765.56;5025859;28;20508;-69
2023/05/03 14:49:36;;;;;;;14.50;11.05;;;;;;;15.55;75.97;99760.13;5014545;28;20026;-69
2023/05/03 14:52:02;;;;;;;19.40;12.82;;;;;;;15.34;76.43;99766.00;5008549;28;20064;-69
2023/05/03 14:54:27;;;;;;;18.15;12.70;;;;;;;15.29;77.90;99761.47;5011543;28;20587;-69
2023/05/03 14:56:53;;;;;;;14.32;12.88;;;;;;;15.71;77.61;99760.16;5011257;28;20029;-69
2023/05/03 14:59:18;;;;;;;22.02;14.15;;;;;;;15.60;78.58;99758.25;5025253;28;20033;-69
2023/05/03 15:01:44;;;;;;;21.65;15.23;;;;;;;14.90;79.25;99758.34;5023812;28;20029;-69
2023/05/03 15:04:09;;;;;;;22.20;16.23;;;;;;;14.21;81.13;99753.44;5020195;28;20039;-69
2023/05/03 15:06:37;;;;;;;18.05;14.27;;;;;;;14.15;82.14;99741.59;5030235;28;20029;-69
2023/05/03 15:09:04;;;;;;;20.45;16.02;;;;;;;14.01;82.65;99743.94;5030731;28;20420;-69
2023/05/03 15:11:29;;;;;;;20.50;14.70;;;;;;;14.18;83.50;99740.88;5031241;28;20068;-69
2023/05/03 15:13:55;;;;;;;18.73;15.50;;;;;;;13.86;83.40;99739.84;5026575;28;20040;-68
2023/05/03 15:16:21;;;;;;;25.33;18.05;;;;;;;13.93;84.63;99734.44;5030676;28;20087;-68
2023/05/03 15:18:47;;;;;;;35.97;19.17;;;;;;;14.00;85.28;99742.31;5029746;28;20114;-69
2023/05/03 15:21:18;;;;;;;23.13;16.73;;;;;;;13.95;83.60;99736.91;5027740;28;20103;-69
2023/05/03 15:23:43;;;;;;;25.98;16.50;;;;;;;14.05;84.78;99730.81;5020948;28;20112;-68
2023/05/03 15:26:09;;;;;;;30.08;19.20;;;;;;;13.98;85.35;99734.22;5008991;28;20037;-69
2023/05/03 15:28:35;;;;;;;40.75;25.15;;;;;;;14.11;86.13;99746.25;5011473;28;20495;-69
2023/05/03 15:31:01;;;;;;;30.13;19.42;;;;;;;14.02;84.35;99731.53;5023113;28;20088;-69
2023/05/03 15:33:26;;;;;;;22.33;17.08;;;;;;;14.00;83.50;99740.31;5030946;28;20025;-69
2023/05/03 15:35:52;;;;;;;26.30;17.55;;;;;;;14.01;84.82;99743.94;5029501;28;20036;-68
2023/05/03 15:38:17;;;;;;;18.70;13.82;;;;;;;14.09;84.67;99748.63;5017286;28;20017;-69
2023/05/03 15:40:43;;;;;;;25.58;16.52;;;;;;;14.12;86.11;99762.00;5026444;28;20029;-68
2023/05/03 15:43:08;;;;;;;23.75;15.32;;;;;;;14.08;85.61;99749.00;5008627;28;20028;-69
2023/05/03 15:45:34;;;;;;;24.98;15.20;;;;;;;14.12;85.34;99750.75;5011358;28;20037;-69
2023/05/03 15:48:00;;;;;;;21.02;15.02;;;;;;;13.96;84.41;99750.63;5022173;28;20527;-68
2023/05/03 15:50:26;;;;;;;17.80;14.20;;;;;;;13.90;84.49;99752.00;5031084;28;20041;-68
2023/05/03 15:52:52;;;;;;;20.23;14.93;;;;;;;13.90;85.97;99761.28;5029528;28;20033;-68
2023/05/03 15:55:18;;;;;;;18.25;14.63;;;;;;;13.87;84.68;99770.41;5024610;28;20550;-69
2023/05/03 15:57:44;;;;;;;23.17;15.65;;;;;;;13.85;84.97;99783.19;5020844;28;20472;-68
2023/05/03 16:00:11;;;;;;;22.60;14.95;;;;;;;13.99;84.82;99771.56;5026033;28;20040;-70
2023/05/03 16:02:37;;;;;;;23.77;15.70;;;;;;;14.02;85.95;99760.44;5009284;28;20086;-70
2023/05/03 16:05:06;;;;;;;30.13;16.80;;;;;;;14.10;87.78;99764.31;5026927;28;20025;-71
2023/05/03 16:07:31;;;;;;;41.05;20.67;;;;;;;14.00;87.15;99770.44;5026808;28;20031;-71
2023/05/03 16:09:57;;;;;;;32.75;20.23;;;;;;;14.01;86.90;99769.25;5010815;28;20025;-70
2023/05/03 16:12:23;;;;;;;59.63;32.25;;;;;;;14.10;87.61;99769.94;5016511;28;20025;-70
2023/05/03 16:14:49;;;;;;;63.92;39.42;;;;;;;13.80;87.56;99770.19;5010414;28;20044;-70
2023/05/03 16:17:15;;;;;;;46.40;31.60;;;;;;;13.80;89.27;99772.16;5010297;28;20021;-70
2023/05/03 16:19:40;;;;;;;32.30;23.77;;;;;;;13.66;89.01;99759.25;5012191;28;20049;-70
2023/05/03 16:22:06;;;;;;;36.35;20.75;;;;;;;13.71;89.80;99766.66;5011651;28;20021;-71
2023/05/03 16:24:34;;;;;;;29.98;22.08;;;;;;;13.64;91.02;99772.03;5014228;28;20034;-73
2023/05/03 16:27:01;;;;;;;37.42;27.23;;;;;;;13.74;90.15;99771.56;5011769;28;20022;-74
2023/05/03 16:29:27;;;;;;;43.60;29.42;;;;;;;13.84;89.51;99759.06;5026197;28;20029;-73
2023/05/03 16:31:53;;;;;;;28.52;20.77;;;;;;;13.75;89.41;99764.75;5027315;28;20087;-71
2023/05/03 16:34:19;;;;;;;26.23;20.67;;;;;;;13.73;89.51;99758.69;5029758;28;20021;-71
2023/05/03 16:36:44;;;;;;;30.67;19.23;;;;;;;13.74;90.13;99761.16;5032319;28;20079;-72
2023/05/03 16:39:13;;;;;;;25.70;20.83;;;;;;;13.81;90.51;99774.63;5015146;28;20496;-72
2023/05/03 16:41:40;;;;;;;47.38;32.50;;;;;;;13.65;91.41;99773.69;5013928;28;20057;-71
2023/05/03 16:44:06;;;;;;;48.60;32.58;;;;;;;13.69;91.90;99766.19;5029011;28;20091;-70
2023/05/03 16:46:37;;;;;;;34.20;24.58;;;;;;;13.47;92.07;99773.84;5015343;28;20440;-70
2023/05/03 16:49:02;;;;;;;;;;;;;;;13.55;92.83;99766.50;5017960;28;20440;-69
2023/05/03 16:51:28;;;;;;;31.13;20.77;;;;;;;13.58;92.24;99768.63;5025456;28;19968;-74
2023/05/03 16:53:54;;;;;;;30.75;24.52;;;;;;;13.49;91.45;99768.69;5021035;28;20072;-73
2023/05/03 16:56:20;;;;;;;32.20;23.25;;;;;;;13.52;92.58;99773.66;5020911;28;20506;-72
2023/05/03 16:58:46;;;;;;;43.45;30.10;;;;;;;13.48;93.50;99776.31;5029036;28;20030;-71
2023/05/03 17:01:12;;;;;;;39.28;29.02;;;;;;;13.28;95.27;99772.38;5032787;28;20032;-66
2023/05/03 17:03:37;;;;;;;36.13;24.30;;;;;;;13.40;96.44;99793.25;5016816;28;20120;-70
2023/05/03 17:06:03;;;;;;;39.38;29.90;;;;;;;13.46;96.54;99803.97;5028495;28;20036;-69
2023/05/03 17:08:29;;;;;;;42.42;31.60;;;;;;;13.31;97.35;99799.78;5028111;28;20030;-71
2023/05/03 17:10:55;;;;;;;35.05;29.10;;;;;;;13.02;97.67;99786.66;5030119;28;20079;-68
2023/05/03 17:13:21;;;;;;;33.63;26.52;;;;;;;13.08;99.02;99795.69;5033611;28;20083;-67
2023/05/03 17:15:46;;;;;;;32.88;25.52;;;;;;;12.91;99.14;99789.88;5014194;28;20034;-68
2023/05/03 17:18:12;;;;;;;36.00;26.77;;;;;;;13.00;98.58;99784.19;5014381;28;20045;-67
2023/05/03 17:20:38;;;;;;;31.45;23.85;;;;;;;13.11;99.04;99795.84;5025485;28;20378;-68
2023/05/03 17:23:03;;;;;;;32.35;25.45;;;;;;;13.22;98.46;99801.84;5023843;28;20044;-67
2023/05/03 17:25:29;;;;;;;32.08;24.13;;;;;;;13.02;98.56;99804.31;5027695;28;20033;-72
2023/05/03 17:27:55;;;;;;;33.72;24.83;;;;;;;12.95;98.31;99797.63;5023899;28;20133;-70
2023/05/03 17:30:21;;;;;;;37.50;25.77;;;;;;;13.10;99.03;99798.97;5015017;28;20025;-71
2023/05/03 17:32:47;;;;;;;33.75;24.80;;;;;;;12.99;99.09;99799.41;5023319;28;20032;-70
2023/05/03 17:35:12;;;;;;;37.15;25.77;;;;;;;12.84;99.76;99789.59;5023094;28;20033;-71
2023/05/03 17:37:38;;;;;;;49.70;30.95;;;;;;;12.82;100.00;99793.94;5029148;28;20473;-71
2023/05/03 17:40:06;;;;;;;42.80;29.63;;;;;;;12.80;100.00;99801.88;5030831;28;20801;-70
2023/05/03 17:42:32;;;;;;;47.05;30.08;;;;;;;12.71;100.00;99802.75;5014515;28;20104;-71
2023/05/03 17:45:00;;;;;;;40.10;27.77;;;;;;;12.68;100.00;99800.66;5011506;28;20087;-73
2023/05/03 17:47:29;;;;;;;35.63;27.20;;;;;;;12.59;100.00;99795.06;5011762;28;20038;-68
2023/05/03 17:49:55;;;;;;;37.15;28.23;;;;;;;12.62;100.00;99797.22;5021124;28;20029;-69
2023/05/03 17:52:20;;;;;;;42.35;30.52;;;;;;;12.62;100.00;99797.22;5026148;28;20044;-69
2023/05/03 17:54:46;;;;;;;47.08;31.55;;;;;;;12.79;100.00;99801.06;5019542;28;20052;-70
2023/05/03 17:57:11;;;;;;;47.38;30.67;;;;;;;12.76;100.00;99805.34;5023356;28;20017;-72
2023/05/03 17:59:37;;;;;;;48.95;33.50;;;;;;;12.82;100.00;99811.59;5029282;28;20415;-73
2023/05/03 18:02:03;;;;;;;50.72;35.50;;;;;;;13.04;100.00;99823.63;5029789;28;20083;-71
2023/05/03 18:04:29;;;;;;;45.72;32.95;;;;;;;13.29;100.00;99835.81;5029477;28;20480;-70
2023/05/03 18:06:55;;;;;;;43.40;31.80;;;;;;;13.14;100.00;99830.81;5024167;28;20030;-70
2023/05/03 18:09:20;;;;;;;41.88;29.52;;;;;;;13.29;100.00;99835.81;5027627;28;20025;-71
2023/05/03 18:11:49;;;;;;;40.95;28.38;;;;;;;13.09;99.25;99837.47;5011448;28;20053;-70
2023/05/03 18:14:15;;;;;;;40.10;28.10;;;;;;;13.08;98.86;99832.22;5015530;28;20029;-72
2023/05/03 18:16:41;;;;;;;38.40;27.38;;;;;;;13.04;98.19;99829.25;5029463;28;20018;-69
2023/05/03 18:19:06;;;;;;;35.28;27.75;;;;;;;13.30;97.21;99837.47;5024785;28;20079;-76
2023/05/03 18:21:32;;;;;;;35.42;26.80;;;;;;;13.48;96.62;99848.56;5020023;28;20048;-73
2023/05/03 18:23:57;;;;;;;34.40;27.50;;;;;;;13.60;95.74;99851.41;5011229;28;20026;-75
2023/05/03 18:26:24;;;;;;;35.92;27.08;;;;;;;13.71;95.27;99850.97;5012153;28;20136;-74
2023/05/03 18:28:50;;;;;;;34.45;26.52;;;;;;;13.73;94.28;99838.22;5024136;28;20032;-72
2023/05/03 18:31:15;;;;;;;33.47;26.52;;;;;;;13.40;94.45;99843.81;5024454;28;20500;-72
2023/05/03 18:33:41;;;;;;;33.95;26.58;;;;;;;13.31;96.56;99847.53;5021540;28;20168;-71
2023/05/03 18:36:10;;;;;;;33.42;25.35;;;;;;;13.47;95.70;99852.53;5017297;28;20025;-70
2023/05/03 18:38:40;;;;;;;44.47;29.17;;;;;;;13.72;95.16;99855.41;5019638;28;20374;-70
2023/05/03 18:41:13;;;;;;;42.60;29.95;;;;;;;13.73;95.26;99838.22;5015817;28;20116;-72
2023/05/03 18:43:43;;;;;;;42.60;27.52;;;;;;;13.93;94.54;99832.84;5015234;28;20121;-72
2023/05/03 18:46:09;;;;;;;36.73;25.70;;;;;;;13.92;93.63;99845.28;5019146;28;20053;-70
2023/05/03 18:48:35;;;;;;;32.13;25.90;;;;;;;13.93;93.12;99860.97;5013141;28;20427;-70
2023/05/03 18:51:01;;;;;;;33.35;26.35;;;;;;;13.92;93.18;99861.34;5018022;28;20018;-71
2023/05/03 18:53:30;;;;;;;34.28;25.45;;;;;;;13.89;93.03;99874.09;5019377;28;20029;-71
2023/05/03 18:55:56;;;;;;;35.28;25.30;;;;;;;13.99;92.83;99875.63;5020236;28;20061;-72
2023/05/03 18:58:22;;;;;;;30.85;22.17;;;;;;;14.08;92.48;99879.16;5028678;28;20039;-70
2023/05/03 19:00:48;;;;;;;33.63;24.40;;;;;;;14.10;91.44;99876.81;5015314;28;20140;-71
2023/05/03 19:03:14;;;;;;;32.05;24.02;;;;;;;14.07;91.94;99863.47;5022985;28;20024;-71
2023/05/03 19:05:40;;;;;;;31.10;23.23;;;;;;;14.02;91.70;99855.28;5021211;28;20033;-71
2023/05/03 19:08:05;;;;;;;34.20;25.00;;;;;;;13.83;91.51;99850.19;5024698;28;20412;-72
2023/05/03 19:10:31;;;;;;;34.47;25.10;;;;;;;13.82;91.78;99846.56;5013837;28;20441;-72
2023/05/03 19:12:57;;;;;;;34.58;26.77;;;;;;;13.48;93.53;99849.38;5011971;28;20033;-71
2023/05/03 19:15:23;;;;;;;36.40;27.42;;;;;;;13.72;92.90;99858.22;5025857;28;20029;-73
2023/05/03 19:17:48;;;;;;;37.92;27.10;;;;;;;13.87;92.41;99854.75;5026260;28;20014;-72
2023/05/03 19:20:14;;;;;;;35.95;25.38;;;;;;;13.98;91.04;99863.56;5020271;28;20394;-72
2023/05/03 19:22:39;;;;;;;37.13;26.33;;;;;;;14.02;90.34;99864.50;5026386;28;20082;-72
2023/05/03 19:25:05;;;;;;;38.63;26.05;;;;;;;14.05;90.09;99863.00;5022547;28;20063;-69
2023/05/03 19:27:31;;;;;;;31.02;26.17;;;;;;;14.14;90.14;99858.09;5019830;28;20036;-70
2023/05/03 19:29:57;;;;;;;38.20;27.35;;;;;;;14.07;90.40;99851.41;5017426;28;20048;-70
2023/05/03 19:32:23;;;;;;;38.60;26.65;;;;;;;14.17;90.59;99860.19;5017944;28;20507;-73
2023/05/03 19:34:48;;;;;;;36.13;25.92;;;;;;;14.11;91.06;99860.78;5025817;28;20033;-75
2023/05/03 19:37:14;;;;;;;39.17;26.88;;;;;;;14.13;90.82;99862.09;5023463;28;20400;-73
2023/05/03 19:39:39;;;;;;;33.10;25.85;;;;;;;14.07;91.13;99863.47;5031124;28;20033;-73
2023/05/03 19:42:05;;;;;;;37.28;27.98;;;;;;;14.10;90.77;99862.75;5027763;28;20116;-73
2023/05/03 19:44:30;;;;;;;36.67;25.52;;;;;;;14.10;91.04;99851.50;5022893;28;20109;-69
2023/05/03 19:46:56;;;;;;;37.40;28.10;;;;;;;14.03;90.67;99848.47;5025268;28;20045;-70
2023/05/03 19:49:24;;;;;;;35.13;26.95;;;;;;;14.04;90.94;99852.94;5030286;28;20025;-69
2023/05/03 19:51:52;;;;;;;30.67;25.13;;;;;;;14.04;90.45;99847.28;5027815;28;20036;-70
2023/05/03 19:54:19;;;;;;;35.38;25.13;;;;;;;14.08;90.04;99845.41;5011935;28;20084;-70
2023/05/03 19:56:44;;;;;;;41.15;26.08;;;;;;;14.11;89.35;99860.78;5011715;28;20093;-70
2023/05/03 19:59:10;;;;;;;29.58;24.50;;;;;;;14.07;88.90;99868.28;5011389;28;20113;-69
2023/05/03 20:01:35;;;;;;;37.25;27.13;;;;;;;14.00;88.47;99869.66;5010022;28;20440;-70
2023/05/03 20:04:01;;;;;;;38.15;25.83;;;;;;;13.98;88.61;99866.38;5018513;28;20026;-70
2023/05/03 20:06:27;;;;;;;32.13;25.45;;;;;;;13.98;89.47;99868.38;5021876;28;20659;-70
2023/05/03 20:08:52;;;;;;;29.42;23.73;;;;;;;13.93;89.61;99862.97;5028537;28;20088;-70
2023/05/03 20:11:18;;;;;;;40.80;23.13;;;;;;;13.92;89.48;99850.09;5016960;28;20021;-69
2023/05/03 20:13:44;;;;;;;37.63;25.38;;;;;;;13.56;90.62;99853.28;5034264;28;20033;-70
2023/05/03 20:16:10;;;;;;;35.67;25.00;;;;;;;13.77;90.11;99863.66;5033567;28;20029;-70
2023/05/03 20:18:35;;;;;;;32.00;26.27;;;;;;;13.81;89.77;99847.72;5023708;28;20034;-69
2023/05/03 20:21:02;;;;;;;33.33;23.98;;;;;;;13.75;89.80;99847.13;5028422;28;20408;-69
2023/05/03 20:23:27;;;;;;;34.80;25.83;;;;;;;13.82;89.70;99840.94;5032556;28;20538;-70
2023/05/03 20:25:53;;;;;;;40.15;24.42;;;;;;;13.81;88.57;99832.84;5033858;28;20108;-69
2023/05/03 20:28:18;;;;;;;32.53;25.38;;;;;;;13.51;89.60;99831.00;5032561;28;20021;-69
2023/05/03 20:30:44;;;;;;;33.10;25.80;;;;;;;13.14;91.25;99828.00;5022928;28;20091;-70
2023/05/03 20:33:09;;;;;;;40.67;28.73;;;;;;;13.34;90.82;99827.16;5031978;28;20021;-70
2023/05/03 20:35:38;;;;;;;30.70;24.40;;;;;;;13.55;89.54;99831.13;5026263;28;20032;-69
2023/05/03 20:38:06;;;;;;;30.08;23.05;;;;;;;13.41;89.48;99828.59;5032088;28;20021;-70
2023/05/03 20:40:33;;;;;;;36.03;25.38;;;;;;;13.29;90.13;99824.59;5026706;28;20092;-69
2023/05/03 20:43:00;;;;;;;33.00;23.65;;;;;;;13.38;90.01;99820.84;5016679;28;20022;-69
2023/05/03 20:45:26;;;;;;;30.05;23.80;;;;;;;13.41;88.93;99821.00;5033038;28;20089;-70
2023/05/03 20:47:52;;;;;;;30.10;23.73;;;;;;;13.27;89.70;99821.31;5034095;28;20065;-69
2023/05/03 20:50:18;;;;;;;29.83;22.63;;;;;;;13.16;89.97;99809.66;5031198;28;20055;-69
2023/05/03 20:52:43;;;;;;;30.38;22.13;;;;;;;13.12;90.65;99817.13;5018824;28;20121;-70
2023/05/03 20:55:09;;;;;;;30.75;23.33;;;;;;;12.93;92.23;99823.25;5021157;28;20091;-70
2023/05/03 20:57:39;;;;;;;27.42;22.05;;;;;;;12.67;93.84;99824.25;5029005;28;20025;-70
2023/05/03 21:00:05;;;;;;;;;;;;;;;12.60;94.49;99823.97;5026756;28;20057;-70
2023/05/03 21:02:31;;;;;;;27.42;22.63;;;;;;;12.73;94.35;99813.63;5031342;28;19948;-70
2023/05/03 21:04:56;;;;;;;31.42;23.48;;;;;;;12.87;93.36;99819.81;5033971;28;20049;-70
2023/05/03 21:07:21;;;;;;;35.63;25.50;;;;;;;12.46;96.43;99830.66;5032035;28;20029;-69
2023/05/03 21:09:47;;;;;;;36.53;27.08;;;;;;;12.25;98.40;99841.84;5031495;28;20025;-70
2023/05/03 21:12:12;;;;;;;32.35;25.70;;;;;;;12.21;99.66;99841.69;5032756;28;20484;-70
2023/05/03 21:14:38;;;;;;;38.42;28.77;;;;;;;12.40;98.38;99846.03;5032022;28;20492;-69
2023/05/03 21:17:05;;;;;;;37.00;28.02;;;;;;;12.43;98.91;99850.97;5031567;28;20033;-70
2023/05/03 21:19:30;;;;;;;48.78;31.52;;;;;;;12.47;99.60;99853.91;5033282;28;20452;-70
2023/05/03 21:21:56;;;;;;;50.30;34.83;;;;;;;12.44;100.00;99846.19;5032881;28;20061;-70
2023/05/03 21:24:24;;;;;;;56.42;35.63;;;;;;;12.27;100.00;99855.50;5033234;28;20025;-70
2023/05/03 21:26:50;;;;;;;53.47;37.88;;;;;;;12.38;100.00;99848.34;5032809;28;20026;-70
2023/05/03 21:29:16;;;;;;;54.10;37.58;;;;;;;12.42;100.00;99838.09;5032012;28;20453;-70
2023/05/03 21:31:41;;;;;;;69.40;50.17;;;;;;;12.35;100.00;99838.63;5020953;28;20084;-70
2023/05/03 21:34:07;;;;;;;74.13;54.72;;;;;;;12.35;100.00;99841.41;5027047;28;20040;-70
2023/05/03 21:36:32;;;;;;;69.80;49.53;;;;;;;12.18;98.70;99839.53;5022214;28;20060;-70
2023/05/03 21:38:58;;;;;;;61.00;45.88;;;;;;;12.22;98.20;99831.25;5032839;28;20104;-70
2023/05/03 21:41:23;;;;;;;60.72;44.25;;;;;;;12.31;97.47;99839.66;5027153;28;20022;-70
2023/05/03 21:43:49;;;;;;;45.80;30.73;;;;;;;12.23;95.07;99858.16;5013620;28;20538;-70
2023/05/03 21:46:14;;;;;;;40.13;22.42;;;;;;;12.31;93.53;99842.47;5031209;28;20405;-70
2023/05/03 21:48:40;;;;;;;22.77;15.48;;;;;;;12.16;92.17;99841.84;5033243;28;20075;-70
2023/05/03 21:51:05;;;;;;;20.35;13.32;;;;;;;12.16;92.46;99846.66;5028573;28;20033;-70
2023/05/03 21:53:31;;;;;;;18.67;12.40;;;;;;;12.04;94.25;99834.16;5033068;28;20025;-70
2023/05/03 21:55:56;;;;;;;15.88;11.50;;;;;;;11.95;94.10;99830.53;5031498;28;20045;-70
2023/05/03 21:58:22;;;;;;;13.38;10.73;;;;;;;11.90;93.06;99828.72;5018332;28;20021;-70
2023/05/03 22:00:47;;;;;;;17.63;10.65;;;;;;;11.92;92.69;99826.41;5013272;28;20030;-70
2023/05/03 22:03:14;;;;;;;13.80;10.48;;;;;;;11.87;93.48;99825.78;5030628;28;20087;-70
2023/05/03 22:05:41;;;;;;;15.70;10.60;;;;;;;11.77;92.71;99813.78;5031040;28;20025;-70
2023/05/03 22:08:08;;;;;;;15.05;9.70;;;;;;;11.88;92.16;99824.59;5029714;28;20032;-70
2023/05/03 22:10:34;;;;;;;13.45;8.35;;;;;;;11.83;92.47;99828.44;5032918;28;20103;-70
2023/05/03 22:12:59;;;;;;;14.75;9.25;;;;;;;11.80;92.87;99824.31;5031293;28;20037;-70
2023/05/03 22:15:25;;;;;;;19.23;9.52;;;;;;;11.88;91.66;99822.66;5026213;28;20053;-70
2023/05/03 22:17:50;;;;;;;17.80;8.80;;;;;;;11.74;92.37;99816.44;5027641;28;20034;-70
2023/05/03 22:20:16;;;;;;;11.57;7.68;;;;;;;11.72;92.41;99816.75;5031875;28;20033;-70
2023/05/03 22:22:41;;;;;;;17.30;7.90;;;;;;;11.70;91.34;99807.88;5017847;28;20038;-70
2023/05/03 22:25:07;;;;;;;16.45;8.15;;;;;;;11.66;92.79;99815.31;5018800;28;20578;-70
2023/05/03 22:27:35;;;;;;;16.23;7.60;;;;;;;11.69;92.21;99803.44;5032372;28;20468;-70
2023/05/03 22:30:00;;;;;;;16.98;7.65;;;;;;;11.62;92.00;99801.13;5031183;28;20045;-70
2023/05/03 22:32:26;;;;;;;11.98;7.72;;;;;;;11.44;92.87;99805.97;5030766;28;20041;-70
2023/05/03 22:34:51;;;;;;;10.68;7.10;;;;;;;11.46;93.05;99791.59;5032467;28;20025;-70
2023/05/03 22:37:17;;;;;;;11.25;7.05;;;;;;;11.47;94.00;99799.69;5030558;28;20507;-70
2023/05/03 22:39:42;;;;;;;15.88;7.50;;;;;;;11.42;93.04;99801.84;5032399;28;20119;-70
2023/05/03 22:42:08;;;;;;;12.40;7.15;;;;;;;11.24;94.12;99791.50;5025145;28;20034;-71
2023/05/03 22:44:35;;;;;;;16.95;6.43;;;;;;;11.16;94.41;99803.53;5019832;28;20472;-70
2023/05/03 22:47:01;;;;;;;13.35;7.68;;;;;;;11.17;95.10;99801.56;5032102;28;20037;-70
2023/05/03 22:49:26;;;;;;;10.55;7.03;;;;;;;11.26;95.38;99793.13;5029305;28;20511;-70
2023/05/03 22:51:51;;;;;;;15.40;7.72;;;;;;;11.22;95.06;99798.56;5029407;28;20420;-70
2023/05/03 22:54:17;;;;;;;13.48;7.10;;;;;;;11.11;95.74;99802.88;5030671;28;20589;-70
2023/05/03 22:56:42;;;;;;;19.30;8.95;;;;;;;11.11;95.55;99795.28;5028145;28;20446;-70
2023/05/03 22:59:08;;;;;;;13.68;8.48;;;;;;;11.13;96.15;99792.19;5030209;28;20052;-71
2023/05/03 23:01:34;;;;;;;15.30;9.13;;;;;;;11.18;96.27;99781.63;5018150;28;20031;-70